Time;durP1;ratioP1;P1;durP2;ratioP2;P2;SDS_P1;SDS_P2;PMS_P1;PMS_P2;Temp;Humidity;BMP_temperature;BMP_pressure;BME280_temperature;BME280_humidity;BME280_pressure;Samples;Min_cycle;Max_cycle;Signal;HPM_P1;HPM_P2
2023/05/24 00:01:42;;;;;;;14.60;5.35;;;7.60;99.90;;;;;;5067091;28;20102;-81
2023/05/24 00:04:09;;;;;;;17.23;5.07;;;7.60;99.90;;;;;;5049820;28;20141;-81
2023/05/24 00:06:36;;;;;;;14.45;4.80;;;7.50;99.90;;;;;;5067179;28;20372;-81
2023/05/24 00:09:04;;;;;;;16.10;4.28;;;7.50;99.90;;;;;;5065375;28;20153;-81
2023/05/24 00:11:30;;;;;;;17.52;5.30;;;7.50;99.90;;;;;;5060277;28;20130;-81
2023/05/24 00:13:56;;;;;;;13.82;4.68;;;7.50;99.90;;;;;;5064208;28;20537;-81
2023/05/24 00:16:22;;;;;;;18.00;5.20;;;7.50;99.90;;;;;;5065924;28;20074;-81
2023/05/24 00:18:48;;;;;;;17.88;4.97;;;7.50;99.90;;;;;;5064617;28;20032;-81
2023/05/24 00:21:14;;;;;;;17.98;5.15;;;7.50;99.90;;;;;;5061982;28;20192;-81
2023/05/24 00:23:40;;;;;;;15.95;4.47;;;7.50;99.90;;;;;;5064915;28;20071;-81
2023/05/24 00:26:07;;;;;;;12.88;4.45;;;7.60;99.90;;;;;;5066889;28;20506;-81
2023/05/24 00:28:33;;;;;;;15.73;4.88;;;7.90;99.90;;;;;;5048516;28;20083;-81
2023/05/24 00:30:59;;;;;;;11.35;4.55;;;7.90;99.90;;;;;;5066157;28;20109;-81
2023/05/24 00:33:26;;;;;;;17.23;4.90;;;7.70;99.90;;;;;;5065731;28;20048;-81
2023/05/24 00:35:55;;;;;;;15.88;5.05;;;7.70;99.90;;;;;;5048120;28;20040;-81
2023/05/24 00:38:25;;;;;;;13.05;4.68;;;7.80;99.90;;;;;;5062806;28;20044;-81
2023/05/24 00:40:51;;;;;;;18.95;5.97;;;7.90;99.90;;;;;;5065540;28;20085;-81
2023/05/24 00:43:17;;;;;;;15.20;4.32;;;7.90;99.90;;;;;;5058098;28;20479;-81
2023/05/24 00:45:43;;;;;;;18.30;5.10;;;8.00;99.90;;;;;;5065279;28;20048;-81
2023/05/24 00:48:10;;;;;;;12.40;4.53;;;8.00;99.90;;;;;;5064111;28;20052;-81
2023/05/24 00:50:37;;;;;;;12.23;4.65;;;8.10;99.90;;;;;;5068215;28;20098;-81
2023/05/24 00:53:03;;;;;;;16.67;5.13;;;8.10;99.90;;;;;;5064146;28;20139;-81
2023/05/24 00:55:29;;;;;;;16.50;4.90;;;8.10;99.90;;;;;;5065789;28;20095;-81
2023/05/24 00:57:58;;;;;;;19.40;5.35;;;8.10;99.90;;;;;;5067927;28;20446;-81
2023/05/24 01:00:25;;;;;;;22.63;5.40;;;8.10;99.90;;;;;;5068256;28;20506;-81
2023/05/24 01:02:50;;;;;;;15.52;5.18;;;8.00;99.90;;;;;;5064541;28;20108;-81
2023/05/24 01:05:19;;;;;;;14.43;5.15;;;8.00;99.90;;;;;;5064800;28;20480;-81
2023/05/24 01:08:28;;;;;;;14.73;5.50;;;7.90;99.90;;;;;;5049558;28;20040;-80
2023/05/24 01:10:58;;;;;;;19.00;5.25;;;7.90;99.90;;;;;;5036271;28;20423;-81
2023/05/24 01:13:44;;;;;;;14.52;4.70;;;8.30;99.90;;;;;;5048918;28;20049;-81
2023/05/24 01:16:16;;;;;;;19.42;5.47;;;7.80;99.90;;;;;;5063618;28;20085;-81
2023/05/24 01:18:48;;;;;;;17.67;5.65;;;7.90;99.90;;;;;;5064983;28;20049;-81
2023/05/24 01:21:55;;;;;;;17.63;4.80;;;7.80;99.90;;;;;;5066875;28;20044;-81
2023/05/24 01:24:41;;;;;;;13.52;4.75;;;7.80;99.90;;;;;;5050836;28;20123;-81
2023/05/24 01:27:08;;;;;;;19.52;5.32;;;7.80;99.90;;;;;;5053406;28;20052;-81
2023/05/24 01:29:35;;;;;;;15.63;5.40;;;7.70;99.90;;;;;;5066340;28;20143;-81
2023/05/24 01:32:01;;;;;;;16.25;5.45;;;7.70;99.90;;;;;;5065223;28;20076;-81
2023/05/24 01:34:27;;;;;;;21.70;5.25;;;7.70;99.90;;;;;;5064829;28;20689;-81
2023/05/24 01:36:53;;;;;;;16.48;4.88;;;7.70;99.90;;;;;;5063436;28;20039;-81
2023/05/24 01:39:20;;;;;;;18.08;4.78;;;7.70;99.90;;;;;;5064993;28;20076;-81
2023/05/24 01:42:06;;;;;;;18.75;5.85;;;7.60;99.90;;;;;;5065578;28;20047;-81
2023/05/24 01:44:54;;;;;;;15.68;4.82;;;7.70;99.90;;;;;;5045581;28;20126;-80
2023/05/24 01:47:26;;;;;;;16.67;4.97;;;7.70;99.90;;;;;;5063891;28;20049;-81
2023/05/24 01:49:55;;;;;;;15.20;5.25;;;7.70;99.90;;;;;;5063806;28;20490;-81
2023/05/24 01:52:26;;;;;;;14.88;5.05;;;7.70;99.90;;;;;;5056525;28;20451;-81
2023/05/24 01:54:55;;;;;;;13.88;5.80;;;7.70;99.90;;;;;;5057989;28;20041;-81
2023/05/24 01:57:23;;;;;;;18.77;6.00;;;7.60;99.90;;;;;;5064197;28;20052;-81
2023/05/24 01:59:50;;;;;;;18.25;6.18;;;7.70;99.90;;;;;;5063878;28;20088;-81
2023/05/24 02:02:16;;;;;;;21.02;5.80;;;7.60;99.90;;;;;;5062108;28;20492;-81
2023/05/24 02:04:42;;;;;;;21.73;6.85;;;7.60;99.90;;;;;;5064760;28;20045;-81
2023/05/24 02:07:08;;;;;;;20.85;5.70;;;7.60;99.90;;;;;;5047838;28;20369;-80
2023/05/24 02:09:33;;;;;;;23.23;6.70;;;7.60;99.90;;;;;;5064717;28;20045;-81
2023/05/24 02:11:59;;;;;;;17.25;5.00;;;7.60;99.90;;;;;;5065675;28;20110;-81
2023/05/24 02:14:25;;;;;;;11.32;4.28;;;7.60;99.90;;;;;;5065422;28;20036;-81
2023/05/24 02:16:51;;;;;;;20.35;5.75;;;7.60;99.90;;;;;;5064652;28;20037;-81
2023/05/24 02:19:16;;;;;;;14.48;4.90;;;7.50;99.90;;;;;;5054867;28;20063;-81
2023/05/24 02:21:42;;;;;;;19.92;5.47;;;7.50;99.90;;;;;;5045196;28;20047;-81
2023/05/24 02:24:10;;;;;;;15.40;5.45;;;7.50;99.90;;;;;;5064682;28;20071;-81
2023/05/24 02:26:36;;;;;;;18.25;5.13;;;7.50;99.90;;;;;;5065025;28;20506;-81
2023/05/24 02:29:02;;;;;;;22.10;6.10;;;7.40;99.90;;;;;;5063955;28;20064;-81
2023/05/24 02:31:28;;;;;;;22.50;5.88;;;7.50;99.90;;;;;;5060894;28;20352;-80
2023/05/24 02:33:55;;;;;;;16.73;5.30;;;7.50;99.90;;;;;;5047491;28;20047;-81
2023/05/24 02:36:22;;;;;;;21.33;5.70;;;7.50;99.90;;;;;;5068692;28;20127;-81
2023/05/24 02:38:51;;;;;;;30.23;7.43;;;7.60;99.90;;;;;;5068010;28;20045;-81
2023/05/24 02:41:17;;;;;;;20.23;5.32;;;7.60;99.90;;;;;;5051221;28;20170;-81
2023/05/24 02:43:46;;;;;;;16.10;5.68;;;7.70;99.90;;;;;;5068697;28;20048;-81
2023/05/24 02:46:13;;;;;;;17.42;5.03;;;7.70;99.90;;;;;;5051985;28;20045;-81
2023/05/24 02:48:39;;;;;;;17.45;5.18;;;7.70;99.90;;;;;;5062140;28;20060;-81
2023/05/24 02:51:05;;;;;;;12.13;4.70;;;7.80;99.90;;;;;;5067604;28;20098;-81
2023/05/24 02:53:31;;;;;;;16.70;4.93;;;7.70;99.90;;;;;;5067775;28;20050;-81
2023/05/24 02:55:58;;;;;;;18.55;6.15;;;7.70;99.90;;;;;;5065463;28;20048;-81
2023/05/24 02:58:24;;;;;;;16.88;5.22;;;7.70;99.90;;;;;;5052064;28;20177;-81
2023/05/24 03:00:49;;;;;;;13.75;4.93;;;7.70;99.90;;;;;;5069054;28;20066;-81
2023/05/24 03:03:15;;;;;;;16.40;4.85;;;7.70;99.90;;;;;;5068650;28;20063;-81
2023/05/24 03:05:41;;;;;;;16.35;4.90;;;7.70;99.90;;;;;;5051097;28;20068;-81
2023/05/24 03:08:06;;;;;;;22.98;5.75;;;7.70;99.90;;;;;;5067691;28;20040;-81
2023/05/24 03:10:32;;;;;;;21.67;5.95;;;7.70;99.90;;;;;;5066849;28;20053;-81
2023/05/24 03:12:58;;;;;;;17.15;4.90;;;7.70;99.90;;;;;;5066369;28;20044;-81
2023/05/24 03:15:23;;;;;;;19.00;5.00;;;7.70;99.90;;;;;;5067066;28;20067;-81
2023/05/24 03:17:49;;;;;;;16.45;5.05;;;7.70;99.90;;;;;;5068312;28;20348;-81
2023/05/24 03:20:16;;;;;;;16.45;5.15;;;7.70;99.90;;;;;;5069681;28;20465;-81
2023/05/24 03:22:42;;;;;;;22.55;5.75;;;7.70;99.90;;;;;;5062820;28;20056;-81
2023/05/24 03:25:08;;;;;;;15.32;5.15;;;7.80;99.90;;;;;;5068575;28;20044;-81
2023/05/24 03:27:37;;;;;;;13.75;5.63;;;7.80;99.90;;;;;;5067106;28;20491;-81
2023/05/24 03:30:05;;;;;;;17.27;4.97;;;7.80;99.90;;;;;;5065563;28;20155;-81
2023/05/24 03:32:31;;;;;;;11.95;4.53;;;7.90;99.90;;;;;;5069396;28;20051;-81
2023/05/24 03:34:59;;;;;;;15.63;6.10;;;7.90;99.90;;;;;;5068518;28;20082;-81
2023/05/24 03:37:25;;;;;;;16.88;4.53;;;7.90;99.90;;;;;;5062887;28;20063;-81
2023/05/24 03:39:50;;;;;;;15.88;5.65;;;8.00;99.90;;;;;;5066742;28;20108;-81
2023/05/24 03:42:16;;;;;;;14.55;5.28;;;8.00;99.90;;;;;;5066860;28;20033;-81
2023/05/24 03:44:42;;;;;;;17.65;5.43;;;8.00;99.90;;;;;;5066317;28;20360;-81
2023/05/24 03:47:08;;;;;;;16.45;5.20;;;8.00;99.90;;;;;;5068027;28;20625;-81
2023/05/24 03:49:34;;;;;;;23.13;5.28;;;8.00;99.90;;;;;;5066014;28;20127;-81
2023/05/24 03:51:59;;;;;;;14.98;4.85;;;8.10;99.90;;;;;;5066832;28;20040;-81
2023/05/24 03:54:25;;;;;;;12.60;5.20;;;8.10;99.90;;;;;;5049702;28;20056;-81
2023/05/24 03:56:52;;;;;;;16.30;4.60;;;8.10;99.90;;;;;;5050979;28;20181;-81
2023/05/24 03:59:18;;;;;;;15.68;5.60;;;8.20;99.90;;;;;;5051076;28;20516;-81
2023/05/24 04:01:43;;;;;;;17.40;5.10;;;8.20;99.90;;;;;;5068647;28;20032;-81
2023/05/24 04:04:09;;;;;;;15.63;4.75;;;8.20;99.90;;;;;;5067573;28;20088;-81
2023/05/24 04:06:35;;;;;;;16.20;5.53;;;8.30;99.90;;;;;;5050821;28;20041;-81
2023/05/24 04:09:03;;;;;;;20.00;5.32;;;8.30;99.90;;;;;;5068882;28;20060;-81
2023/05/24 04:11:29;;;;;;;22.98;6.10;;;8.30;99.90;;;;;;5066505;28;20072;-81
2023/05/24 04:14:00;;;;;;;16.42;5.32;;;8.40;99.90;;;;;;5069082;28;20121;-79
2023/05/24 04:16:26;;;;;;;16.08;5.10;;;8.40;99.90;;;;;;5067360;28;20040;-79
2023/05/24 04:18:53;;;;;;;16.05;5.53;;;8.60;99.90;;;;;;5068252;28;20040;-81
2023/05/24 04:21:19;;;;;;;16.08;5.10;;;8.50;99.90;;;;;;5067148;28;20055;-82
2023/05/24 04:23:45;;;;;;;15.30;4.75;;;8.50;99.90;;;;;;5067978;28;20044;-81
2023/05/24 04:26:11;;;;;;;14.32;4.50;;;8.50;99.90;;;;;;5066876;28;20055;-81
2023/05/24 04:28:37;;;;;;;14.75;5.05;;;8.50;99.90;;;;;;5069812;28;20121;-81
2023/05/24 04:31:06;;;;;;;15.25;4.95;;;8.60;99.90;;;;;;5065521;28;20099;-81
2023/05/24 04:33:33;;;;;;;13.93;4.55;;;9.00;99.90;;;;;;5060160;28;20064;-81
2023/05/24 04:36:00;;;;;;;14.07;4.68;;;8.70;99.90;;;;;;5063599;28;20105;-80
2023/05/24 04:38:31;;;;;;;20.23;5.63;;;8.70;99.90;;;;;;5061434;28;20051;-80
2023/05/24 04:41:00;;;;;;;18.45;4.95;;;8.80;99.90;;;;;;5067942;28;20102;-81
2023/05/24 04:43:27;;;;;;;18.80;4.68;;;8.80;99.90;;;;;;5052313;28;20558;-80
2023/05/24 04:45:53;;;;;;;15.00;4.30;;;8.90;99.90;;;;;;5066682;28;20059;-80
2023/05/24 04:48:23;;;;;;;16.95;5.03;;;9.00;99.90;;;;;;5066870;28;20080;-81
2023/05/24 04:50:53;;;;;;;16.20;4.15;;;9.00;99.90;;;;;;5047643;28;20048;-80
2023/05/24 04:53:20;;;;;;;13.75;4.65;;;9.00;99.90;;;;;;5063803;28;20044;-80
2023/05/24 04:55:46;;;;;;;12.05;4.32;;;9.10;99.90;;;;;;5067616;28;20060;-80
2023/05/24 04:58:12;;;;;;;11.20;3.55;;;9.20;99.90;;;;;;5066929;28;20040;-80
2023/05/24 05:00:38;;;;;;;16.50;4.38;;;9.30;99.90;;;;;;5065773;28;20483;-80
2023/05/24 05:03:04;;;;;;;16.67;4.97;;;9.30;99.90;;;;;;5065092;28;20056;-80
2023/05/24 05:05:30;;;;;;;17.88;4.32;;;9.40;99.90;;;;;;5084338;28;20048;-80
2023/05/24 05:07:56;;;;;;;20.10;5.00;;;9.40;99.90;;;;;;5065543;28;20514;-80
2023/05/24 05:10:22;;;;;;;15.25;4.85;;;9.40;99.90;;;;;;5049314;28;20306;-80
2023/05/24 05:12:48;;;;;;;15.75;4.75;;;9.50;99.90;;;;;;5062680;28;20037;-80
2023/05/24 05:15:13;;;;;;;14.32;4.22;;;9.60;99.90;;;;;;5067982;28;20044;-80
2023/05/24 05:17:39;;;;;;;15.18;5.00;;;9.70;99.90;;;;;;5064874;28;20391;-81
2023/05/24 05:20:06;;;;;;;17.00;3.90;;;9.70;99.90;;;;;;5060925;28;20110;-81
2023/05/24 05:22:32;;;;;;;14.60;4.85;;;9.80;99.90;;;;;;5062500;28;20356;-80
2023/05/24 05:24:58;;;;;;;14.00;4.18;;;10.00;99.90;;;;;;5063215;28;20332;-81
2023/05/24 05:27:24;;;;;;;14.60;4.30;;;10.00;99.90;;;;;;5069496;28;20036;-80
2023/05/24 05:29:49;;;;;;;10.90;3.60;;;10.20;99.90;;;;;;5064385;28;20040;-81
2023/05/24 05:32:15;;;;;;;16.42;4.22;;;10.30;99.90;;;;;;5065990;28;20072;-81
2023/05/24 05:34:40;;;;;;;14.80;3.60;;;10.40;99.90;;;;;;5067644;28;20044;-81
2023/05/24 05:37:08;;;;;;;15.55;4.50;;;10.60;99.90;;;;;;5066179;28;20174;-81
2023/05/24 05:39:34;;;;;;;17.08;4.82;;;10.80;99.90;;;;;;5043999;28;20047;-81
2023/05/24 05:42:01;;;;;;;16.40;4.22;;;10.90;99.90;;;;;;5059702;28;20392;-81
2023/05/24 05:44:27;;;;;;;15.68;3.75;;;10.90;99.90;;;;;;5066296;28;20048;-81
2023/05/24 05:46:53;;;;;;;13.30;3.47;;;10.90;99.90;;;;;;5070476;28;20126;-81
2023/05/24 05:49:19;;;;;;;11.43;3.85;;;10.90;99.90;;;;;;5086476;28;20165;-81
2023/05/24 05:51:45;;;;;;;12.70;3.78;;;10.90;99.90;;;;;;5086511;28;20259;-81
2023/05/24 05:54:17;;;;;;;14.00;4.18;;;11.40;99.90;;;;;;5087488;28;20044;-81
2023/05/24 05:56:45;;;;;;;16.45;4.35;;;12.10;99.90;;;;;;5069062;28;20418;-81
2023/05/24 05:59:11;;;;;;;18.13;4.35;;;12.50;99.90;;;;;;5066439;28;20047;-81
2023/05/24 06:01:37;;;;;;;13.07;3.63;;;12.70;99.90;;;;;;5068675;28;20047;-86
2023/05/24 06:04:03;;;;;;;13.05;3.80;;;12.80;99.90;;;;;;5069194;28;20056;-85
2023/05/24 06:06:29;;;;;;;19.20;3.97;;;13.10;99.90;;;;;;5068902;28;20047;-85
2023/05/24 06:08:54;;;;;;;17.40;4.18;;;13.30;99.90;;;;;;5068550;28;20047;-86
2023/05/24 06:11:20;;;;;;;10.43;3.67;;;13.90;99.90;;;;;;5074485;28;20070;-85
2023/05/24 06:13:46;;;;;;;13.43;3.95;;;13.90;99.90;;;;;;5075092;28;20700;-86
2023/05/24 06:16:13;;;;;;;10.18;3.60;;;13.60;99.90;;;;;;5076356;28;20186;-85
2023/05/24 06:18:39;;;;;;;14.93;4.22;;;13.60;99.90;;;;;;5094626;28;20302;-86
2023/05/24 06:21:05;;;;;;;11.40;3.97;;;13.60;99.90;;;;;;5076276;28;20414;-86
2023/05/24 06:23:31;;;;;;;10.35;3.40;;;13.90;99.90;;;;;;5075375;28;20397;-86
2023/05/24 06:25:57;;;;;;;14.80;4.07;;;14.10;99.90;;;;;;5075800;28;20381;-86
2023/05/24 06:28:23;;;;;;;15.50;3.88;;;14.10;99.90;;;;;;5059680;28;20048;-87
2023/05/24 06:30:49;;;;;;;16.23;4.45;;;14.00;99.90;;;;;;5076259;28;20044;-86
2023/05/24 06:33:15;;;;;;;14.25;4.38;;;13.90;99.90;;;;;;5076020;28;20070;-86
2023/05/24 06:35:41;;;;;;;12.65;3.95;;;13.80;99.90;;;;;;5076273;28;20119;-86
2023/05/24 06:38:07;;;;;;;12.10;3.95;;;13.90;99.90;;;;;;5073937;28;20469;-85
2023/05/24 06:40:32;;;;;;;10.55;3.30;;;13.80;99.90;;;;;;5094062;28;20055;-86
2023/05/24 06:42:58;;;;;;;10.75;3.30;;;13.70;99.90;;;;;;5094558;28;20048;-86
2023/05/24 06:45:24;;;;;;;14.32;4.15;;;13.70;99.90;;;;;;5076254;28;20398;-87
2023/05/24 06:47:49;;;;;;;16.23;3.63;;;13.60;99.90;;;;;;5076225;28;20054;-87
2023/05/24 06:50:15;;;;;;;19.27;3.60;;;13.50;99.90;;;;;;5074023;28;20190;-85
2023/05/24 06:52:41;;;;;;;10.73;4.28;;;13.30;99.90;;;;;;5093849;28;20044;-87
2023/05/24 06:55:07;;;;;;;15.95;3.58;;;13.20;99.90;;;;;;5055092;28;20504;-87
2023/05/24 06:57:33;;;;;;;15.45;4.55;;;13.20;99.90;;;;;;5092853;28;20048;-86
2023/05/24 06:59:59;;;;;;;11.02;3.78;;;13.30;99.90;;;;;;5060033;28;20136;-84
2023/05/24 07:02:27;;;;;;;17.17;4.13;;;13.50;99.90;;;;;;5074045;28;20481;-86
2023/05/24 07:04:53;;;;;;;11.65;3.72;;;13.70;99.90;;;;;;5075425;28;20448;-86
2023/05/24 07:07:19;;;;;;;12.75;3.72;;;13.60;99.90;;;;;;5091077;28;20036;-87
2023/05/24 07:09:46;;;;;;;8.65;3.10;;;13.40;99.90;;;;;;5073125;28;20044;-87
2023/05/24 07:12:12;;;;;;;13.88;4.10;;;13.40;99.90;;;;;;5073852;28;20036;-87
2023/05/24 07:14:37;;;;;;;12.38;3.75;;;13.30;99.90;;;;;;5075144;28;20138;-87
2023/05/24 07:17:03;;;;;;;11.95;3.08;;;13.20;99.90;;;;;;5074050;28;20115;-87
2023/05/24 07:19:29;;;;;;;15.55;3.88;;;13.10;99.90;;;;;;5058985;28;20689;-88
2023/05/24 07:21:55;;;;;;;12.02;3.25;;;13.20;99.90;;;;;;5054317;28;20456;-86
2023/05/24 07:24:21;;;;;;;11.40;3.78;;;13.20;99.90;;;;;;5071802;28;20134;-87
2023/05/24 07:26:48;;;;;;;13.07;3.10;;;13.40;99.90;;;;;;5055211;28;20142;-86
2023/05/24 07:29:13;;;;;;;10.32;3.47;;;13.80;99.90;;;;;;5071728;28;20094;-84
2023/05/24 07:31:39;;;;;;;8.00;2.97;;;14.10;99.90;;;;;;5072475;28;20052;-88
2023/05/24 07:34:04;;;;;;;7.78;3.22;;;14.30;99.90;;;;;;5071934;28;20046;-87
2023/05/24 07:36:32;;;;;;;14.80;2.70;;;14.50;99.90;;;;;;5073270;28;20143;-90
2023/05/24 07:38:59;;;;;;;11.07;3.90;;;14.70;99.90;;;;;;5072300;28;20052;-87
2023/05/24 07:41:26;;;;;;;8.27;2.97;;;14.80;99.90;;;;;;5073741;28;20109;-88
2023/05/24 07:43:53;;;;;;;7.43;2.25;;;15.10;99.90;;;;;;5089860;28;20105;-87
2023/05/24 07:46:19;;;;;;;9.55;3.20;;;15.30;99.90;;;;;;5090413;28;20040;-88
2023/05/24 07:48:44;;;;;;;6.78;2.75;;;15.40;99.90;;;;;;5071805;28;20067;-87
2023/05/24 07:51:11;;;;;;;8.77;2.83;;;15.40;99.90;;;;;;5072739;28;20142;-87
2023/05/24 07:53:37;;;;;;;8.20;3.45;;;15.10;99.90;;;;;;5089293;28;20044;-87
2023/05/24 07:56:02;;;;;;;10.50;3.13;;;14.90;99.90;;;;;;5071996;28;20086;-88
2023/05/24 07:58:28;;;;;;;8.30;2.60;;;14.90;99.90;;;;;;5072967;28;20630;-88
2023/05/24 08:00:55;;;;;;;8.35;2.88;;;14.70;99.90;;;;;;5072066;28;20127;-87
2023/05/24 08:03:21;;;;;;;9.75;2.83;;;14.70;99.90;;;;;;5089547;28;20059;-87
2023/05/24 08:05:46;;;;;;;7.47;2.63;;;14.70;99.90;;;;;;5071891;28;20040;-88
2023/05/24 08:08:12;;;;;;;9.93;2.67;;;14.60;99.90;;;;;;5071280;28;20058;-88
2023/05/24 08:10:38;;;;;;;9.10;2.90;;;14.40;99.90;;;;;;5055138;28;20083;-88
2023/05/24 08:13:04;;;;;;;9.55;3.30;;;14.40;99.90;;;;;;5072280;28;20076;-88
2023/05/24 08:15:30;;;;;;;10.15;2.55;;;14.40;99.90;;;;;;5070557;28;20055;-88
2023/05/24 08:17:55;;;;;;;12.23;2.47;;;14.40;99.90;;;;;;5071344;28;20104;-88
2023/05/24 08:20:22;;;;;;;5.72;2.33;;;14.70;99.90;;;;;;5071598;28;20039;-88
2023/05/24 08:22:47;;;;;;;9.30;2.80;;;14.50;99.90;;;;;;5070755;28;20080;-88
2023/05/24 08:25:14;;;;;;;10.48;2.60;;;14.70;99.90;;;;;;5071461;28;20402;-88
2023/05/24 08:27:39;;;;;;;6.95;2.72;;;14.80;99.90;;;;;;5071544;28;20044;-87
2023/05/24 08:30:09;;;;;;;10.73;2.90;;;14.90;99.80;;;;;;5071832;28;20044;-89
2023/05/24 08:32:35;;;;;;;6.63;2.67;;;15.00;98.90;;;;;;5055134;28;20040;-87
2023/05/24 08:35:01;;;;;;;7.78;3.03;;;15.10;97.90;;;;;;5071818;28;20059;-88
2023/05/24 08:37:27;;;;;;;8.90;3.38;;;15.30;98.20;;;;;;5071488;28;20087;-87
2023/05/24 08:39:53;;;;;;;8.07;2.42;;;15.30;97.90;;;;;;5070114;28;20075;-87
2023/05/24 08:42:20;;;;;;;11.63;3.25;;;15.30;96.90;;;;;;5070532;28;20632;-88
2023/05/24 08:44:52;;;;;;;8.25;2.63;;;15.40;96.50;;;;;;5070838;28;20056;-88
2023/05/24 08:47:19;;;;;;;;;;;15.50;96.40;;;;;;5054712;28;20048;-87
2023/05/24 08:49:46;;;;;;;11.20;3.40;;;15.40;93.00;;;;;;5070908;28;19928;-88
2023/05/24 08:52:13;;;;;;;9.02;3.00;;;15.40;96.90;;;;;;5071162;28;20048;-86
2023/05/24 08:54:42;;;;;;;11.35;2.70;;;15.50;96.50;;;;;;5071530;28;20039;-88
2023/05/24 08:57:11;;;;;;;7.47;3.83;;;15.50;95.30;;;;;;5059926;28;20052;-89
2023/05/24 08:59:41;;;;;;;7.03;2.97;;;15.60;94.80;;;;;;5070828;28;20363;-88
2023/05/24 09:02:10;;;;;;;9.15;2.97;;;15.60;94.10;;;;;;5071097;28;20086;-88
2023/05/24 09:04:38;;;;;;;7.88;2.88;;;15.90;93.70;;;;;;5072240;28;20063;-88
2023/05/24 09:07:06;;;;;;;6.82;2.88;;;16.30;93.00;;;;;;5072624;28;20094;-89
2023/05/24 09:09:34;;;;;;;11.20;2.88;;;16.10;92.60;;;;;;5071689;28;20073;-89
2023/05/24 09:12:04;;;;;;;9.50;2.60;;;16.70;92.10;;;;;;5054930;28;20159;-88
2023/05/24 09:14:30;;;;;;;8.05;3.10;;;16.50;91.20;;;;;;5055317;28;20032;-87
2023/05/24 09:16:56;;;;;;;6.97;2.78;;;16.70;91.20;;;;;;5072169;28;20085;-87
2023/05/24 09:19:22;;;;;;;9.75;2.97;;;16.70;90.90;;;;;;5071466;28;20048;-84
2023/05/24 09:21:49;;;;;;;9.52;2.70;;;16.80;90.70;;;;;;5071732;28;20498;-86
2023/05/24 09:24:15;;;;;;;13.77;3.38;;;16.30;90.40;;;;;;5088985;28;20788;-87
2023/05/24 09:26:41;;;;;;;6.97;2.60;;;16.20;91.10;;;;;;5054782;28;20055;-87
2023/05/24 09:29:08;;;;;;;5.60;2.97;;;16.00;91.20;;;;;;5068313;28;20036;-88
2023/05/24 09:31:35;;;;;;;7.82;2.50;;;16.20;91.60;;;;;;5071173;28;20046;-88
2023/05/24 09:34:08;;;;;;;6.43;2.75;;;16.40;90.50;;;;;;5053930;28;20052;-86
2023/05/24 09:36:35;;;;;;;9.48;2.50;;;16.60;89.60;;;;;;5072019;28;20040;-87
2023/05/24 09:39:09;;;;;;;6.80;2.42;;;16.60;88.80;;;;;;5054838;28;20055;-88
2023/05/24 09:41:42;;;;;;;6.10;2.10;;;16.70;85.40;;;;;;5054590;28;20032;-87
2023/05/24 09:44:11;;;;;;;6.63;2.67;;;16.60;86.80;;;;;;5053044;28;20527;-86
2023/05/24 09:46:37;;;;;;;5.63;2.47;;;16.90;86.60;;;;;;5053729;28;20048;-86
2023/05/24 09:49:05;;;;;;;5.55;2.35;;;16.50;85.90;;;;;;5054656;28;20058;-87
2023/05/24 09:51:31;;;;;;;6.97;2.42;;;16.50;84.60;;;;;;5071675;28;20060;-87
2023/05/24 09:54:01;;;;;;;3.90;1.92;;;16.90;83.30;;;;;;5069555;28;20055;-87
2023/05/24 09:56:28;;;;;;;4.22;1.95;;;16.60;81.50;;;;;;5088886;28;20083;-87
2023/05/24 09:59:08;;;;;;;4.25;1.95;;;16.50;80.10;;;;;;5052727;28;20486;-88
2023/05/24 10:01:34;;;;;;;5.22;2.17;;;16.50;78.40;;;;;;5069830;28;20056;-85
2023/05/24 10:04:01;;;;;;;3.85;1.83;;;16.60;79.80;;;;;;5070442;28;20097;-88
2023/05/24 10:06:34;;;;;;;6.43;2.50;;;17.00;79.40;;;;;;5054437;28;20040;-88
2023/05/24 10:09:00;;;;;;;3.97;2.20;;;16.80;78.60;;;;;;5069255;28;20052;-88
2023/05/24 10:11:25;;;;;;;4.95;2.35;;;16.70;78.60;;;;;;5053356;28;20059;-88
2023/05/24 10:13:52;;;;;;;6.13;2.60;;;16.70;79.10;;;;;;5069729;28;20488;-88
2023/05/24 10:16:17;;;;;;;4.13;2.30;;;16.80;79.00;;;;;;5054626;28;20059;-86
2023/05/24 10:18:43;;;;;;;6.28;2.30;;;17.10;78.40;;;;;;5089295;28;20402;-89
2023/05/24 10:21:15;;;;;;;6.00;2.53;;;17.40;77.60;;;;;;5051525;28;20375;-89
2023/05/24 10:23:49;;;;;;;3.65;2.17;;;16.90;75.70;;;;;;5054910;28;20490;-89
2023/05/24 10:26:15;;;;;;;6.50;2.47;;;17.00;77.60;;;;;;5069646;28;20048;-89
2023/05/24 10:28:44;;;;;;;6.40;2.50;;;16.70;77.30;;;;;;5071351;28;20498;-89
2023/05/24 10:31:15;;;;;;;4.00;2.58;;;16.50;77.10;;;;;;5054109;28;20466;-87
2023/05/24 10:33:43;;;;;;;6.43;2.33;;;16.80;76.90;;;;;;5087316;28;20139;-88
2023/05/24 10:36:12;;;;;;;4.95;2.58;;;16.80;77.50;;;;;;5053381;28;20079;-89
2023/05/24 10:38:39;;;;;;;4.18;2.42;;;17.10;76.60;;;;;;5069787;28;20083;-88
2023/05/24 10:41:07;;;;;;;5.18;2.13;;;17.30;76.60;;;;;;5087189;28;20444;-87
2023/05/24 10:43:34;;;;;;;6.45;2.20;;;17.10;74.70;;;;;;5067999;28;20090;-87
2023/05/24 10:46:02;;;;;;;3.35;2.20;;;17.20;74.20;;;;;;5069694;28;20052;-89
2023/05/24 10:48:28;;;;;;;5.45;2.13;;;17.00;73.20;;;;;;5069744;28;20059;-88
2023/05/24 10:50:54;;;;;;;6.20;2.53;;;17.10;73.00;;;;;;5053329;28;20048;-88
2023/05/24 10:53:22;;;;;;;5.35;2.70;;;17.20;73.10;;;;;;5069407;28;20135;-88
2023/05/24 10:56:05;;;;;;;6.05;2.20;;;17.30;73.50;;;;;;5071684;28;20063;-88
2023/05/24 10:58:36;;;;;;;6.78;3.35;;;17.20;72.70;;;;;;5057037;28;20122;-86
2023/05/24 11:01:02;;;;;;;11.57;2.30;;;17.10;72.70;;;;;;5073558;28;20044;-88
2023/05/24 11:03:32;;;;;;;7.93;2.72;;;16.90;74.70;;;;;;5037523;28;20059;-89
2023/05/24 11:05:58;;;;;;;5.70;2.38;;;16.90;75.60;;;;;;5074624;28;20666;-88
2023/05/24 11:08:32;;;;;;;9.23;3.45;;;16.90;75.90;;;;;;5075141;28;20044;-89
2023/05/24 11:11:11;;;;;;;6.70;2.97;;;17.00;76.30;;;;;;5057706;28;20079;-90
2023/05/24 11:13:38;;;;;;;5.45;2.38;;;17.60;76.10;;;;;;5058432;28;20043;-89
2023/05/24 11:16:04;;;;;;;4.22;2.33;;;17.50;75.10;;;;;;5074089;28;20048;-88
2023/05/24 11:18:31;;;;;;;6.60;2.60;;;17.60;74.00;;;;;;5073320;28;20036;-89
2023/05/24 11:20:58;;;;;;;5.18;2.00;;;17.60;73.20;;;;;;5075144;28;20044;-87
2023/05/24 11:23:24;;;;;;;6.18;2.60;;;17.50;72.90;;;;;;5074621;28;20032;-89
2023/05/24 11:25:51;;;;;;;4.05;2.03;;;17.30;73.50;;;;;;5074904;28;20051;-88
2023/05/24 11:28:17;;;;;;;5.35;2.20;;;17.40;74.00;;;;;;5074116;28;20978;-89
2023/05/24 11:30:47;;;;;;;5.97;2.10;;;17.60;73.90;;;;;;5073042;28;20082;-89
2023/05/24 11:33:21;;;;;;;4.40;2.35;;;17.40;74.00;;;;;;5071976;28;20630;-89
2023/05/24 11:35:51;;;;;;;6.20;2.30;;;17.40;74.00;;;;;;5068148;28;20040;-88
2023/05/24 11:38:17;;;;;;;6.53;2.15;;;17.30;73.90;;;;;;5072473;28;20036;-89
2023/05/24 11:40:44;;;;;;;5.18;1.98;;;17.70;74.10;;;;;;5075776;28;20486;-89
2023/05/24 11:43:16;;;;;;;5.28;2.08;;;17.60;74.40;;;;;;5094010;28;20442;-87
2023/05/24 11:45:47;;;;;;;5.30;2.13;;;17.00;73.30;;;;;;5098620;28;20043;-86
2023/05/24 11:48:13;;;;;;;7.87;2.50;;;16.80;74.70;;;;;;5068066;28;20059;-89
2023/05/24 11:50:42;;;;;;;11.18;2.88;;;16.90;76.00;;;;;;5055613;28;20036;-87
2023/05/24 11:53:12;;;;;;;6.57;2.40;;;17.20;75.80;;;;;;5071543;28;20087;-88
2023/05/24 11:55:42;;;;;;;5.55;2.33;;;17.40;75.60;;;;;;5061929;28;20517;-87
2023/05/24 11:58:24;;;;;;;6.68;2.40;;;17.60;75.40;;;;;;5055396;28;20036;-88
2023/05/24 12:00:51;;;;;;;6.00;2.45;;;18.10;74.70;;;;;;5056218;28;20130;-87
2023/05/24 12:03:17;;;;;;;6.97;2.60;;;18.40;73.60;;;;;;5070844;28;20040;-89
2023/05/24 12:05:43;;;;;;;8.25;2.20;;;18.70;73.70;;;;;;5071984;28;20044;-87
2023/05/24 12:08:11;;;;;;;7.50;2.28;;;18.00;73.80;;;;;;5070672;28;20097;-87
2023/05/24 12:10:41;;;;;;;10.63;3.10;;;17.80;74.10;;;;;;5071115;28;20075;-88
2023/05/24 12:13:21;;;;;;;8.95;2.38;;;17.70;74.60;;;;;;5054254;28;20406;-87
2023/05/24 12:15:50;;;;;;;131.40;13.32;;;17.80;75.50;;;;;;5080492;28;20531;-88
2023/05/24 12:18:23;;;;;;;11.40;2.75;;;17.30;76.60;;;;;;5066417;28;20040;-88
2023/05/24 12:20:49;;;;;;;20.98;3.42;;;17.20;76.20;;;;;;5054961;28;20517;-87
2023/05/24 12:23:17;;;;;;;10.48;3.00;;;17.00;76.30;;;;;;5072039;28;20097;-88
2023/05/24 12:25:43;;;;;;;10.30;2.88;;;16.80;76.90;;;;;;5054979;28;20458;-88
2023/05/24 12:28:08;;;;;;;9.40;2.72;;;17.00;77.80;;;;;;5071468;28;20082;-87
2023/05/24 12:30:37;;;;;;;7.68;2.72;;;16.60;78.30;;;;;;5071851;28;20395;-88
2023/05/24 12:33:02;;;;;;;8.70;2.97;;;16.60;78.90;;;;;;5073520;28;20040;-88
2023/05/24 12:35:31;;;;;;;7.18;2.50;;;16.60;79.20;;;;;;5051388;28;20101;-88
2023/05/24 12:37:58;;;;;;;9.80;2.53;;;16.60;79.30;;;;;;5053806;28;20048;-88
2023/05/24 12:40:24;;;;;;;8.20;3.15;;;16.50;78.80;;;;;;5053872;28;20044;-89
2023/05/24 12:42:53;;;;;;;8.32;3.30;;;16.50;79.70;;;;;;5050996;28;20066;-89
2023/05/24 12:45:23;;;;;;;5.97;2.92;;;16.50;79.80;;;;;;5052729;28;20091;-89
2023/05/24 12:47:50;;;;;;;6.82;2.83;;;16.50;80.00;;;;;;5072729;28;20063;-89